sensor_id;sensor_type;location;lat;lon;timestamp;temperature;humidity
17452;DHT22;8843;48.838;9.324;2024-01-15T00:00:14;2.70;80.00
17452;DHT22;8843;48.838;9.324;2024-01-15T00:02:41;2.60;79.90
17452;DHT22;8843;48.838;9.324;2024-01-15T00:05:08;2.60;80.00
17452;DHT22;8843;48.838;9.324;2024-01-15T00:07:35;2.60;80.10
17452;DHT22;8843;48.838;9.324;2024-01-15T00:10:02;2.60;80.80
17452;DHT22;8843;48.838;9.324;2024-01-15T00:12:29;2.60;80.10
17452;DHT22;8843;48.838;9.324;2024-01-15T00:14:56;2.60;80.00
17452;DHT22;8843;48.838;9.324;2024-01-15T00:17:24;2.70;80.80
17452;DHT22;8843;48.838;9.324;2024-01-15T00:19:52;2.70;80.00
17452;DHT22;8843;48.838;9.324;2024-01-15T00:22:19;2.70;80.00
17452;DHT22;8843;48.838;9.324;2024-01-15T00:24:45;2.70;80.00
17452;DHT22;8843;48.838;9.324;2024-01-15T00:27:12;2.70;79.90
17452;DHT22;8843;48.838;9.324;2024-01-15T00:29:39;2.60;79.90
17452;DHT22;8843;48.838;9.324;2024-01-15T00:32:06;2.70;79.90
17452;DHT22;8843;48.838;9.324;2024-01-15T00:34:34;2.60;79.80
17452;DHT22;8843;48.838;9.324;2024-01-15T00:37:01;2.70;79.90
17452;DHT22;8843;48.838;9.324;2024-01-15T00:39:28;2.70;79.90
17452;DHT22;8843;48.838;9.324;2024-01-15T00:41:55;2.70;79.90
17452;DHT22;8843;48.838;9.324;2024-01-15T00:44:22;2.70;79.80
17452;DHT22;8843;48.838;9.324;2024-01-15T00:46:49;2.70;79.90
17452;DHT22;8843;48.838;9.324;2024-01-15T00:49:16;2.70;79.80
17452;DHT22;8843;48.838;9.324;2024-01-15T00:51:44;2.70;79.80
17452;DHT22;8843;48.838;9.324;2024-01-15T00:54:11;2.70;79.90
17452;DHT22;8843;48.838;9.324;2024-01-15T00:56:38;2.70;79.80
17452;DHT22;8843;48.838;9.324;2024-01-15T00:59:05;2.70;79.90
17452;DHT22;8843;48.838;9.324;2024-01-15T01:01:33;2.70;79.90
17452;DHT22;8843;48.838;9.324;2024-01-15T01:04:00;2.60;79.80
17452;DHT22;8843;48.838;9.324;2024-01-15T01:06:27;2.70;79.90
17452;DHT22;8843;48.838;9.324;2024-01-15T01:08:55;2.70;79.90
17452;DHT22;8843;48.838;9.324;2024-01-15T01:11:22;2.70;79.90
17452;DHT22;8843;48.838;9.324;2024-01-15T01:13:48;2.70;79.90
17452;DHT22;8843;48.838;9.324;2024-01-15T01:16:15;2.60;79.80
17452;DHT22;8843;48.838;9.324;2024-01-15T01:18:42;2.70;79.90
17452;DHT22;8843;48.838;9.324;2024-01-15T01:21:09;2.70;79.90
17452;DHT22;8843;48.838;9.324;2024-01-15T01:23:36;2.60;79.80
17452;DHT22;8843;48.838;9.324;2024-01-15T01:26:04;2.70;80.00
17452;DHT22;8843;48.838;9.324;2024-01-15T01:28:31;2.70;80.00
17452;DHT22;8843;48.838;9.324;2024-01-15T01:30:58;2.60;79.90
17452;DHT22;8843;48.838;9.324;2024-01-15T01:33:26;2.60;79.90
17452;DHT22;8843;48.838;9.324;2024-01-15T01:35:52;2.70;79.90
17452;DHT22;8843;48.838;9.324;2024-01-15T01:38:19;2.70;79.90
17452;DHT22;8843;48.838;9.324;2024-01-15T01:40:46;2.70;79.90
17452;DHT22;8843;48.838;9.324;2024-01-15T01:43:14;2.70;79.90
17452;DHT22;8843;48.838;9.324;2024-01-15T01:45:41;2.70;79.90
17452;DHT22;8843;48.838;9.324;2024-01-15T01:48:08;2.60;79.80
17452;DHT22;8843;48.838;9.324;2024-01-15T01:50:35;2.60;80.00
17452;DHT22;8843;48.838;9.324;2024-01-15T01:53:02;2.60;80.00
17452;DHT22;8843;48.838;9.324;2024-01-15T01:55:31;2.70;80.00
17452;DHT22;8843;48.838;9.324;2024-01-15T01:58:00;2.60;80.00
17452;DHT22;8843;48.838;9.324;2024-01-15T02:00:30;2.60;80.00
17452;DHT22;8843;48.838;9.324;2024-01-15T02:02:57;2.60;80.10
17452;DHT22;8843;48.838;9.324;2024-01-15T02:05:24;2.60;80.10
17452;DHT22;8843;48.838;9.324;2024-01-15T02:07:51;2.60;80.10
17452;DHT22;8843;48.838;9.324;2024-01-15T02:10:17;2.60;80.10
17452;DHT22;8843;48.838;9.324;2024-01-15T02:12:44;2.60;80.10
17452;DHT22;8843;48.838;9.324;2024-01-15T02:15:14;2.60;80.10
17452;DHT22;8843;48.838;9.324;2024-01-15T02:18:00;2.60;80.10
17452;DHT22;8843;48.838;9.324;2024-01-15T02:20:27;2.60;80.10
17452;DHT22;8843;48.838;9.324;2024-01-15T02:23:01;2.60;80.20
17452;DHT22;8843;48.838;9.324;2024-01-15T02:25:28;2.60;80.20
17452;DHT22;8843;48.838;9.324;2024-01-15T02:27:55;2.60;80.20
17452;DHT22;8843;48.838;9.324;2024-01-15T02:30:23;2.60;80.10
17452;DHT22;8843;48.838;9.324;2024-01-15T02:32:50;2.60;80.30
17452;DHT22;8843;48.838;9.324;2024-01-15T02:35:17;2.60;80.30
17452;DHT22;8843;48.838;9.324;2024-01-15T02:37:44;2.60;80.30
17452;DHT22;8843;48.838;9.324;2024-01-15T02:40:12;2.60;80.30
17452;DHT22;8843;48.838;9.324;2024-01-15T02:42:39;2.60;80.10
17452;DHT22;8843;48.838;9.324;2024-01-15T02:45:07;2.60;80.10
17452;DHT22;8843;48.838;9.324;2024-01-15T02:47:34;2.60;80.10
17452;DHT22;8843;48.838;9.324;2024-01-15T02:50:00;2.60;80.20
17452;DHT22;8843;48.838;9.324;2024-01-15T02:52:27;2.60;80.30
17452;DHT22;8843;48.838;9.324;2024-01-15T02:54:54;2.60;80.30
17452;DHT22;8843;48.838;9.324;2024-01-15T02:57:22;2.60;80.40
17452;DHT22;8843;48.838;9.324;2024-01-15T02:59:49;2.60;80.30
17452;DHT22;8843;48.838;9.324;2024-01-15T03:02:16;2.50;80.40
17452;DHT22;8843;48.838;9.324;2024-01-15T03:04:43;2.60;80.50
17452;DHT22;8843;48.838;9.324;2024-01-15T03:07:10;2.60;80.50
17452;DHT22;8843;48.838;9.324;2024-01-15T03:09:37;2.60;80.50
17452;DHT22;8843;48.838;9.324;2024-01-15T03:12:05;2.60;80.50
17452;DHT22;8843;48.838;9.324;2024-01-15T03:14:33;2.60;80.50
17452;DHT22;8843;48.838;9.324;2024-01-15T03:17:01;2.60;80.50
17452;DHT22;8843;48.838;9.324;2024-01-15T03:19:28;2.60;80.50
17452;DHT22;8843;48.838;9.324;2024-01-15T03:21:56;2.60;80.50
17452;DHT22;8843;48.838;9.324;2024-01-15T03:24:22;2.60;80.50
17452;DHT22;8843;48.838;9.324;2024-01-15T03:26:49;2.60;80.50
17452;DHT22;8843;48.838;9.324;2024-01-15T03:29:16;2.60;80.50
17452;DHT22;8843;48.838;9.324;2024-01-15T03:31:44;2.60;80.60
17452;DHT22;8843;48.838;9.324;2024-01-15T03:34:11;2.60;80.50
17452;DHT22;8843;48.838;9.324;2024-01-15T03:36:38;2.60;80.70
17452;DHT22;8843;48.838;9.324;2024-01-15T03:39:06;2.60;80.70
17452;DHT22;8843;48.838;9.324;2024-01-15T03:41:33;2.60;80.60
17452;DHT22;8843;48.838;9.324;2024-01-15T03:44:00;2.60;80.60
17452;DHT22;8843;48.838;9.324;2024-01-15T03:46:27;2.60;80.70
17452;DHT22;8843;48.838;9.324;2024-01-15T03:48:55;2.60;80.70
17452;DHT22;8843;48.838;9.324;2024-01-15T03:51:23;2.60;81.30
17452;DHT22;8843;48.838;9.324;2024-01-15T03:53:50;2.60;80.70
17452;DHT22;8843;48.838;9.324;2024-01-15T03:56:17;2.60;80.80
17452;DHT22;8843;48.838;9.324;2024-01-15T03:58:44;2.60;80.80
17452;DHT22;8843;48.838;9.324;2024-01-15T04:01:11;2.60;80.80
17452;DHT22;8843;48.838;9.324;2024-01-15T04:03:38;2.60;81.50
17452;DHT22;8843;48.838;9.324;2024-01-15T04:06:06;2.60;80.80
17452;DHT22;8843;48.838;9.324;2024-01-15T04:08:33;2.60;80.80
17452;DHT22;8843;48.838;9.324;2024-01-15T04:11:00;2.60;80.70
17452;DHT22;8843;48.838;9.324;2024-01-15T04:13:27;2.60;81.50
17452;DHT22;8843;48.838;9.324;2024-01-15T04:15:54;2.60;80.80
17452;DHT22;8843;48.838;9.324;2024-01-15T04:18:21;2.60;80.80
17452;DHT22;8843;48.838;9.324;2024-01-15T04:20:47;2.60;80.80
17452;DHT22;8843;48.838;9.324;2024-01-15T04:23:16;2.60;80.80
17452;DHT22;8843;48.838;9.324;2024-01-15T04:25:42;2.60;80.90
17452;DHT22;8843;48.838;9.324;2024-01-15T04:28:10;2.60;80.90
17452;DHT22;8843;48.838;9.324;2024-01-15T04:30:37;2.60;81.70
17452;DHT22;8843;48.838;9.324;2024-01-15T04:33:04;2.60;81.00
17452;DHT22;8843;48.838;9.324;2024-01-15T04:35:31;2.60;81.50
17452;DHT22;8843;48.838;9.324;2024-01-15T04:37:58;2.60;80.90
17452;DHT22;8843;48.838;9.324;2024-01-15T04:40:26;2.60;81.00
17452;DHT22;8843;48.838;9.324;2024-01-15T04:42:53;2.60;81.00
17452;DHT22;8843;48.838;9.324;2024-01-15T04:45:20;2.60;81.00
17452;DHT22;8843;48.838;9.324;2024-01-15T04:47:48;2.60;81.00
17452;DHT22;8843;48.838;9.324;2024-01-15T04:50:15;2.50;81.80
17452;DHT22;8843;48.838;9.324;2024-01-15T04:52:42;2.50;81.10
17452;DHT22;8843;48.838;9.324;2024-01-15T04:55:09;2.50;81.80
17452;DHT22;8843;48.838;9.324;2024-01-15T04:57:37;2.50;81.10
17452;DHT22;8843;48.838;9.324;2024-01-15T05:00:05;2.50;81.10
17452;DHT22;8843;48.838;9.324;2024-01-15T05:02:32;2.60;81.20
17452;DHT22;8843;48.838;9.324;2024-01-15T05:04:59;2.60;81.20
17452;DHT22;8843;48.838;9.324;2024-01-15T05:07:26;2.60;81.20
17452;DHT22;8843;48.838;9.324;2024-01-15T05:09:52;2.60;81.20
17452;DHT22;8843;48.838;9.324;2024-01-15T05:12:19;2.60;81.20
17452;DHT22;8843;48.838;9.324;2024-01-15T05:14:47;2.60;81.20
17452;DHT22;8843;48.838;9.324;2024-01-15T05:17:14;2.60;81.30
17452;DHT22;8843;48.838;9.324;2024-01-15T05:19:41;2.60;81.20
17452;DHT22;8843;48.838;9.324;2024-01-15T05:22:08;2.60;81.20
17452;DHT22;8843;48.838;9.324;2024-01-15T05:24:35;2.50;81.20
17452;DHT22;8843;48.838;9.324;2024-01-15T05:27:02;2.50;81.70
17452;DHT22;8843;48.838;9.324;2024-01-15T05:29:29;2.60;81.00
17452;DHT22;8843;48.838;9.324;2024-01-15T05:31:57;2.50;81.20
17452;DHT22;8843;48.838;9.324;2024-01-15T05:34:24;2.60;81.20
17452;DHT22;8843;48.838;9.324;2024-01-15T05:36:51;2.60;82.10
17452;DHT22;8843;48.838;9.324;2024-01-15T05:39:18;2.60;80.40
17452;DHT22;8843;48.838;9.324;2024-01-15T05:41:45;2.60;84.10
17452;DHT22;8843;48.838;9.324;2024-01-15T05:44:12;3.20;84.50
17452;DHT22;8843;48.838;9.324;2024-01-15T05:46:39;2.90;80.70
17452;DHT22;8843;48.838;9.324;2024-01-15T05:49:07;2.80;81.40
17452;DHT22;8843;48.838;9.324;2024-01-15T05:51:34;2.80;81.50
17452;DHT22;8843;48.838;9.324;2024-01-15T05:54:01;2.70;81.70
17452;DHT22;8843;48.838;9.324;2024-01-15T05:56:28;2.60;81.60
17452;DHT22;8843;48.838;9.324;2024-01-15T05:58:55;2.60;81.80
17452;DHT22;8843;48.838;9.324;2024-01-15T06:01:21;2.60;81.80
17452;DHT22;8843;48.838;9.324;2024-01-15T06:03:48;2.60;81.60
17452;DHT22;8843;48.838;9.324;2024-01-15T06:06:16;2.60;81.20
17452;DHT22;8843;48.838;9.324;2024-01-15T06:08:43;2.50;81.80
17452;DHT22;8843;48.838;9.324;2024-01-15T06:11:10;2.60;81.90
17452;DHT22;8843;48.838;9.324;2024-01-15T06:13:37;2.60;81.70
17452;DHT22;8843;48.838;9.324;2024-01-15T06:16:15;3.30;90.10
17452;DHT22;8843;48.838;9.324;2024-01-15T06:18:45;5.00;84.00
17452;DHT22;8843;48.838;9.324;2024-01-15T06:21:17;5.70;78.30
17452;DHT22;8843;48.838;9.324;2024-01-15T06:23:50;5.70;76.00
17452;DHT22;8843;48.838;9.324;2024-01-15T06:26:24;5.70;77.70
17452;DHT22;8843;48.838;9.324;2024-01-15T06:28:55;6.00;77.50
17452;DHT22;8843;48.838;9.324;2024-01-15T06:31:53;5.20;69.80
17452;DHT22;8843;48.838;9.324;2024-01-15T06:34:20;5.40;75.60
17452;DHT22;8843;48.838;9.324;2024-01-15T06:36:49;5.20;74.70
17452;DHT22;8843;48.838;9.324;2024-01-15T06:39:19;5.50;75.30
17452;DHT22;8843;48.838;9.324;2024-01-15T06:41:46;5.50;78.70
17452;DHT22;8843;48.838;9.324;2024-01-15T06:44:13;4.70;79.70
17452;DHT22;8843;48.838;9.324;2024-01-15T06:46:42;4.10;81.40
17452;DHT22;8843;48.838;9.324;2024-01-15T06:49:09;3.80;81.60
17452;DHT22;8843;48.838;9.324;2024-01-15T06:51:36;3.40;81.40
17452;DHT22;8843;48.838;9.324;2024-01-15T06:54:04;3.30;82.40
17452;DHT22;8843;48.838;9.324;2024-01-15T06:56:32;3.20;83.20
17452;DHT22;8843;48.838;9.324;2024-01-15T06:58:59;3.10;83.40
17452;DHT22;8843;48.838;9.324;2024-01-15T07:01:26;3.00;83.60
17452;DHT22;8843;48.838;9.324;2024-01-15T07:03:53;3.00;83.60
17452;DHT22;8843;48.838;9.324;2024-01-15T07:06:20;3.00;83.70
17452;DHT22;8843;48.838;9.324;2024-01-15T07:08:46;2.90;83.70
17452;DHT22;8843;48.838;9.324;2024-01-15T07:11:13;2.90;83.60
17452;DHT22;8843;48.838;9.324;2024-01-15T07:13:42;2.90;83.60
17452;DHT22;8843;48.838;9.324;2024-01-15T07:16:08;2.80;85.60
17452;DHT22;8843;48.838;9.324;2024-01-15T07:18:35;3.20;84.80
17452;DHT22;8843;48.838;9.324;2024-01-15T07:21:02;3.10;82.20
17452;DHT22;8843;48.838;9.324;2024-01-15T07:23:31;3.00;83.20
17452;DHT22;8843;48.838;9.324;2024-01-15T07:25:58;2.90;83.30
17452;DHT22;8843;48.838;9.324;2024-01-15T07:28:24;2.80;83.30
17452;DHT22;8843;48.838;9.324;2024-01-15T07:30:53;2.80;83.40
17452;DHT22;8843;48.838;9.324;2024-01-15T07:33:20;2.80;84.10
17452;DHT22;8843;48.838;9.324;2024-01-15T07:35:47;2.80;83.40
17452;DHT22;8843;48.838;9.324;2024-01-15T07:38:13;2.80;83.30
17452;DHT22;8843;48.838;9.324;2024-01-15T07:40:40;2.80;84.10
17452;DHT22;8843;48.838;9.324;2024-01-15T07:43:07;2.80;83.20
17452;DHT22;8843;48.838;9.324;2024-01-15T07:45:34;2.80;83.30
17452;DHT22;8843;48.838;9.324;2024-01-15T07:48:02;2.80;83.30
17452;DHT22;8843;48.838;9.324;2024-01-15T07:50:29;2.70;83.20
17452;DHT22;8843;48.838;9.324;2024-01-15T07:52:57;2.80;84.00
17452;DHT22;8843;48.838;9.324;2024-01-15T07:55:23;2.80;83.20
17452;DHT22;8843;48.838;9.324;2024-01-15T07:57:50;2.80;83.10
17452;DHT22;8843;48.838;9.324;2024-01-15T08:00:19;2.80;83.00
17452;DHT22;8843;48.838;9.324;2024-01-15T08:02:46;2.70;83.00
17452;DHT22;8843;48.838;9.324;2024-01-15T08:05:14;2.80;83.90
17452;DHT22;8843;48.838;9.324;2024-01-15T08:07:41;2.70;83.10
17452;DHT22;8843;48.838;9.324;2024-01-15T08:10:09;2.70;83.10
17452;DHT22;8843;48.838;9.324;2024-01-15T08:12:36;2.70;82.90
17452;DHT22;8843;48.838;9.324;2024-01-15T08:15:04;2.70;83.00
17452;DHT22;8843;48.838;9.324;2024-01-15T08:17:31;2.70;82.90
17452;DHT22;8843;48.838;9.324;2024-01-15T08:19:58;2.70;82.80
17452;DHT22;8843;48.838;9.324;2024-01-15T08:22:26;2.70;82.90
17452;DHT22;8843;48.838;9.324;2024-01-15T08:24:53;2.70;82.30
17452;DHT22;8843;48.838;9.324;2024-01-15T08:27:20;2.70;82.70
17452;DHT22;8843;48.838;9.324;2024-01-15T08:29:47;2.70;82.60
17452;DHT22;8843;48.838;9.324;2024-01-15T08:32:14;2.70;82.20
17452;DHT22;8843;48.838;9.324;2024-01-15T08:34:41;2.70;82.50
17452;DHT22;8843;48.838;9.324;2024-01-15T08:37:08;2.70;82.00
17452;DHT22;8843;48.838;9.324;2024-01-15T08:39:37;2.70;83.20
17452;DHT22;8843;48.838;9.324;2024-01-15T08:42:04;2.70;82.90
17452;DHT22;8843;48.838;9.324;2024-01-15T08:44:31;2.70;82.40
17452;DHT22;8843;48.838;9.324;2024-01-15T08:46:58;2.70;83.40
17452;DHT22;8843;48.838;9.324;2024-01-15T08:49:25;2.70;82.50
17452;DHT22;8843;48.838;9.324;2024-01-15T08:51:51;2.70;81.80
17452;DHT22;8843;48.838;9.324;2024-01-15T08:54:18;2.70;82.20
17452;DHT22;8843;48.838;9.324;2024-01-15T08:56:47;2.70;82.00
17452;DHT22;8843;48.838;9.324;2024-01-15T08:59:14;2.70;82.40
17452;DHT22;8843;48.838;9.324;2024-01-15T09:01:41;2.70;82.50
17452;DHT22;8843;48.838;9.324;2024-01-15T09:04:08;2.70;82.50
17452;DHT22;8843;48.838;9.324;2024-01-15T09:06:35;2.70;82.70
17452;DHT22;8843;48.838;9.324;2024-01-15T09:09:02;2.70;82.40
17452;DHT22;8843;48.838;9.324;2024-01-15T09:11:30;2.60;82.00
17452;DHT22;8843;48.838;9.324;2024-01-15T09:13:58;2.60;82.10
17452;DHT22;8843;48.838;9.324;2024-01-15T09:16:25;2.60;81.90
17452;DHT22;8843;48.838;9.324;2024-01-15T09:18:52;2.60;82.20
17452;DHT22;8843;48.838;9.324;2024-01-15T09:21:22;2.70;82.50
17452;DHT22;8843;48.838;9.324;2024-01-15T09:23:49;2.60;82.20
17452;DHT22;8843;48.838;9.324;2024-01-15T09:26:16;2.60;82.50
17452;DHT22;8843;48.838;9.324;2024-01-15T09:28:43;2.60;83.10
17452;DHT22;8843;48.838;9.324;2024-01-15T09:31:11;2.70;82.20
17452;DHT22;8843;48.838;9.324;2024-01-15T09:33:38;2.70;82.50
17452;DHT22;8843;48.838;9.324;2024-01-15T09:36:06;2.60;81.70
17452;DHT22;8843;48.838;9.324;2024-01-15T09:38:33;2.60;82.10
17452;DHT22;8843;48.838;9.324;2024-01-15T09:41:00;2.60;82.20
17452;DHT22;8843;48.838;9.324;2024-01-15T09:43:27;2.70;82.50
17452;DHT22;8843;48.838;9.324;2024-01-15T09:45:54;2.70;82.00
17452;DHT22;8843;48.838;9.324;2024-01-15T09:48:22;2.60;82.00
17452;DHT22;8843;48.838;9.324;2024-01-15T09:50:50;2.60;82.30
17452;DHT22;8843;48.838;9.324;2024-01-15T09:53:17;2.60;81.60
17452;DHT22;8843;48.838;9.324;2024-01-15T09:55:46;2.60;81.70
17452;DHT22;8843;48.838;9.324;2024-01-15T09:58:13;2.60;82.40
17452;DHT22;8843;48.838;9.324;2024-01-15T10:00:41;2.60;82.10
17452;DHT22;8843;48.838;9.324;2024-01-15T10:03:10;2.60;82.40
17452;DHT22;8843;48.838;9.324;2024-01-15T10:05:39;2.60;82.20
17452;DHT22;8843;48.838;9.324;2024-01-15T10:08:06;2.60;82.30
17452;DHT22;8843;48.838;9.324;2024-01-15T10:10:36;2.60;82.40
17452;DHT22;8843;48.838;9.324;2024-01-15T10:13:04;2.60;82.00
17452;DHT22;8843;48.838;9.324;2024-01-15T10:15:34;2.60;81.40
17452;DHT22;8843;48.838;9.324;2024-01-15T10:18:02;2.60;82.20
17452;DHT22;8843;48.838;9.324;2024-01-15T10:20:31;2.60;81.80
17452;DHT22;8843;48.838;9.324;2024-01-15T10:23:00;2.60;82.00
17452;DHT22;8843;48.838;9.324;2024-01-15T10:25:27;2.60;82.00
17452;DHT22;8843;48.838;9.324;2024-01-15T10:28:01;2.60;82.40
17452;DHT22;8843;48.838;9.324;2024-01-15T10:30:28;2.60;81.90
17452;DHT22;8843;48.838;9.324;2024-01-15T10:32:58;2.60;82.10
17452;DHT22;8843;48.838;9.324;2024-01-15T10:35:27;2.60;81.90
17452;DHT22;8843;48.838;9.324;2024-01-15T10:37:54;2.60;82.10
17452;DHT22;8843;48.838;9.324;2024-01-15T10:40:23;2.60;82.10
17452;DHT22;8843;48.838;9.324;2024-01-15T10:42:50;2.60;82.10
17452;DHT22;8843;48.838;9.324;2024-01-15T10:45:17;2.60;81.20
17452;DHT22;8843;48.838;9.324;2024-01-15T10:47:45;2.60;82.20
17452;DHT22;8843;48.838;9.324;2024-01-15T10:50:12;2.60;82.80
17452;DHT22;8843;48.838;9.324;2024-01-15T10:52:40;2.60;82.30
17452;DHT22;8843;48.838;9.324;2024-01-15T10:55:09;2.60;82.40
17452;DHT22;8843;48.838;9.324;2024-01-15T10:57:38;2.60;82.60
17452;DHT22;8843;48.838;9.324;2024-01-15T11:00:06;2.60;82.10
17452;DHT22;8843;48.838;9.324;2024-01-15T11:02:36;2.60;81.90
17452;DHT22;8843;48.838;9.324;2024-01-15T11:05:03;2.60;82.30
17452;DHT22;8843;48.838;9.324;2024-01-15T11:07:31;2.60;81.60
17452;DHT22;8843;48.838;9.324;2024-01-15T11:09:58;2.60;81.60
17452;DHT22;8843;48.838;9.324;2024-01-15T11:12:25;2.60;81.40
17452;DHT22;8843;48.838;9.324;2024-01-15T11:15:01;2.60;81.80
17452;DHT22;8843;48.838;9.324;2024-01-15T11:17:59;2.60;81.90
17452;DHT22;8843;48.838;9.324;2024-01-15T11:20:27;2.60;81.60
17452;DHT22;8843;48.838;9.324;2024-01-15T11:22:53;2.60;81.60
17452;DHT22;8843;48.838;9.324;2024-01-15T11:25:23;2.50;81.40
17452;DHT22;8843;48.838;9.324;2024-01-15T11:27:51;2.50;81.60
17452;DHT22;8843;48.838;9.324;2024-01-15T11:30:20;2.60;82.10
17452;DHT22;8843;48.838;9.324;2024-01-15T11:32:46;2.60;82.00
17452;DHT22;8843;48.838;9.324;2024-01-15T11:35:14;2.60;81.70
17452;DHT22;8843;48.838;9.324;2024-01-15T11:38:03;2.60;82.10
17452;DHT22;8843;48.838;9.324;2024-01-15T11:40:38;2.60;82.20
17452;DHT22;8843;48.838;9.324;2024-01-15T11:43:08;2.60;82.30
17452;DHT22;8843;48.838;9.324;2024-01-15T11:45:37;2.60;82.40
17452;DHT22;8843;48.838;9.324;2024-01-15T11:48:14;2.60;82.30
17452;DHT22;8843;48.838;9.324;2024-01-15T11:50:42;2.60;82.20
17452;DHT22;8843;48.838;9.324;2024-01-15T11:53:17;2.60;82.60
17452;DHT22;8843;48.838;9.324;2024-01-15T11:55:45;2.60;82.80
17452;DHT22;8843;48.838;9.324;2024-01-15T11:58:14;2.60;82.50
17452;DHT22;8843;48.838;9.324;2024-01-15T12:00:45;2.60;82.40
17452;DHT22;8843;48.838;9.324;2024-01-15T12:03:14;2.70;82.80
17452;DHT22;8843;48.838;9.324;2024-01-15T12:05:41;2.60;82.70
17452;DHT22;8843;48.838;9.324;2024-01-15T12:08:08;2.70;82.70
17452;DHT22;8843;48.838;9.324;2024-01-15T12:10:37;2.60;82.30
17452;DHT22;8843;48.838;9.324;2024-01-15T12:13:06;2.60;83.00
17452;DHT22;8843;48.838;9.324;2024-01-15T12:15:36;2.60;82.90
17452;DHT22;8843;48.838;9.324;2024-01-15T12:18:05;2.60;82.80
17452;DHT22;8843;48.838;9.324;2024-01-15T12:20:32;2.60;83.30
17452;DHT22;8843;48.838;9.324;2024-01-15T12:23:02;2.60;83.40
17452;DHT22;8843;48.838;9.324;2024-01-15T12:25:30;2.60;83.50
17452;DHT22;8843;48.838;9.324;2024-01-15T12:27:58;2.60;83.30
17452;DHT22;8843;48.838;9.324;2024-01-15T12:30:26;2.60;83.70
17452;DHT22;8843;48.838;9.324;2024-01-15T12:32:53;2.60;83.50
17452;DHT22;8843;48.838;9.324;2024-01-15T12:35:23;2.60;83.60
17452;DHT22;8843;48.838;9.324;2024-01-15T12:37:51;2.60;83.50
17452;DHT22;8843;48.838;9.324;2024-01-15T12:40:19;2.60;83.80
17452;DHT22;8843;48.838;9.324;2024-01-15T12:42:46;2.60;83.80
17452;DHT22;8843;48.838;9.324;2024-01-15T12:45:14;2.60;83.90
17452;DHT22;8843;48.838;9.324;2024-01-15T12:47:41;2.60;84.30
17452;DHT22;8843;48.838;9.324;2024-01-15T12:50:09;2.60;84.20
17452;DHT22;8843;48.838;9.324;2024-01-15T12:52:40;2.60;84.40
17452;DHT22;8843;48.838;9.324;2024-01-15T12:55:08;2.60;84.40
17452;DHT22;8843;48.838;9.324;2024-01-15T12:57:35;2.60;84.40
17452;DHT22;8843;48.838;9.324;2024-01-15T13:00:03;2.60;84.60
17452;DHT22;8843;48.838;9.324;2024-01-15T13:02:32;2.60;84.70
17452;DHT22;8843;48.838;9.324;2024-01-15T13:04:59;2.60;84.90
17452;DHT22;8843;48.838;9.324;2024-01-15T13:07:26;2.60;85.00
17452;DHT22;8843;48.838;9.324;2024-01-15T13:09:55;2.60;85.00
17452;DHT22;8843;48.838;9.324;2024-01-15T13:12:22;2.60;85.00
17452;DHT22;8843;48.838;9.324;2024-01-15T13:14:49;2.60;85.00
17452;DHT22;8843;48.838;9.324;2024-01-15T13:17:15;2.60;85.20
17452;DHT22;8843;48.838;9.324;2024-01-15T13:19:42;2.60;85.10
17452;DHT22;8843;48.838;9.324;2024-01-15T13:22:09;2.70;85.10
17452;DHT22;8843;48.838;9.324;2024-01-15T13:24:39;2.60;85.10
17452;DHT22;8843;48.838;9.324;2024-01-15T13:27:07;2.70;85.10
17452;DHT22;8843;48.838;9.324;2024-01-15T13:29:34;2.70;85.20
17452;DHT22;8843;48.838;9.324;2024-01-15T13:32:01;2.60;85.20
17452;DHT22;8843;48.838;9.324;2024-01-15T13:34:28;2.60;85.10
17452;DHT22;8843;48.838;9.324;2024-01-15T13:36:55;2.60;85.40
17452;DHT22;8843;48.838;9.324;2024-01-15T13:39:22;2.60;85.50
17452;DHT22;8843;48.838;9.324;2024-01-15T13:41:49;2.60;85.40
17452;DHT22;8843;48.838;9.324;2024-01-15T13:44:18;2.60;85.60
17452;DHT22;8843;48.838;9.324;2024-01-15T13:46:45;2.60;85.60
17452;DHT22;8843;48.838;9.324;2024-01-15T13:49:12;2.70;85.50
17452;DHT22;8843;48.838;9.324;2024-01-15T13:51:40;2.70;85.40
17452;DHT22;8843;48.838;9.324;2024-01-15T13:54:07;2.70;85.70
17452;DHT22;8843;48.838;9.324;2024-01-15T13:56:34;2.70;85.60
17452;DHT22;8843;48.838;9.324;2024-01-15T13:59:01;2.70;85.70
17452;DHT22;8843;48.838;9.324;2024-01-15T14:01:31;2.70;85.70
17452;DHT22;8843;48.838;9.324;2024-01-15T14:03:58;2.70;85.70
17452;DHT22;8843;48.838;9.324;2024-01-15T14:06:25;2.70;85.60
17452;DHT22;8843;48.838;9.324;2024-01-15T14:08:52;2.70;85.60
17452;DHT22;8843;48.838;9.324;2024-01-15T14:11:19;2.70;85.70
17452;DHT22;8843;48.838;9.324;2024-01-15T14:13:46;2.70;85.70
17452;DHT22;8843;48.838;9.324;2024-01-15T14:16:13;2.70;85.80
17452;DHT22;8843;48.838;9.324;2024-01-15T14:18:41;2.70;85.80
17452;DHT22;8843;48.838;9.324;2024-01-15T14:21:09;2.70;85.90
17452;DHT22;8843;48.838;9.324;2024-01-15T14:23:36;2.70;85.90
17452;DHT22;8843;48.838;9.324;2024-01-15T14:26:04;2.70;85.90
17452;DHT22;8843;48.838;9.324;2024-01-15T14:28:31;2.70;85.90
17452;DHT22;8843;48.838;9.324;2024-01-15T14:30:57;2.70;85.90
17452;DHT22;8843;48.838;9.324;2024-01-15T14:33:25;2.70;86.00
17452;DHT22;8843;48.838;9.324;2024-01-15T14:35:54;2.70;85.90
17452;DHT22;8843;48.838;9.324;2024-01-15T14:38:20;2.70;86.10
17452;DHT22;8843;48.838;9.324;2024-01-15T14:40:48;2.70;86.10
17452;DHT22;8843;48.838;9.324;2024-01-15T14:43:15;2.70;86.00
17452;DHT22;8843;48.838;9.324;2024-01-15T14:45:42;2.70;86.00
17452;DHT22;8843;48.838;9.324;2024-01-15T14:48:10;2.70;85.90
17452;DHT22;8843;48.838;9.324;2024-01-15T14:50:39;2.80;86.00
17452;DHT22;8843;48.838;9.324;2024-01-15T14:53:07;2.70;86.10
17452;DHT22;8843;48.838;9.324;2024-01-15T14:55:34;2.70;86.10
17452;DHT22;8843;48.838;9.324;2024-01-15T14:58:01;2.70;86.10
17452;DHT22;8843;48.838;9.324;2024-01-15T15:00:29;2.70;86.10
17452;DHT22;8843;48.838;9.324;2024-01-15T15:02:55;2.70;86.10
17452;DHT22;8843;48.838;9.324;2024-01-15T15:05:22;2.70;86.80
17452;DHT22;8843;48.838;9.324;2024-01-15T15:07:50;2.70;86.00
17452;DHT22;8843;48.838;9.324;2024-01-15T15:10:19;2.70;86.00
17452;DHT22;8843;48.838;9.324;2024-01-15T15:12:46;2.70;86.00
17452;DHT22;8843;48.838;9.324;2024-01-15T15:15:13;2.70;86.10
17452;DHT22;8843;48.838;9.324;2024-01-15T15:17:42;2.70;86.00
17452;DHT22;8843;48.838;9.324;2024-01-15T15:20:10;2.70;86.20
17452;DHT22;8843;48.838;9.324;2024-01-15T15:22:37;2.70;86.20
17452;DHT22;8843;48.838;9.324;2024-01-15T15:25:04;2.60;86.10
17452;DHT22;8843;48.838;9.324;2024-01-15T15:27:35;2.70;86.20
17452;DHT22;8843;48.838;9.324;2024-01-15T15:30:03;2.70;86.10
17452;DHT22;8843;48.838;9.324;2024-01-15T15:32:30;2.70;86.10
17452;DHT22;8843;48.838;9.324;2024-01-15T15:34:57;2.40;87.90
17452;DHT22;8843;48.838;9.324;2024-01-15T15:37:24;3.10;87.70
17452;DHT22;8843;48.838;9.324;2024-01-15T15:39:51;2.90;86.30
17452;DHT22;8843;48.838;9.324;2024-01-15T15:42:18;2.60;86.20
17452;DHT22;8843;48.838;9.324;2024-01-15T15:44:46;2.30;86.80
17452;DHT22;8843;48.838;9.324;2024-01-15T15:47:14;2.20;87.60
17452;DHT22;8843;48.838;9.324;2024-01-15T15:49:41;2.50;87.90
17452;DHT22;8843;48.838;9.324;2024-01-15T15:52:08;2.70;89.90
17452;DHT22;8843;48.838;9.324;2024-01-15T15:54:35;3.30;89.70
17452;DHT22;8843;48.838;9.324;2024-01-15T15:57:03;3.60;89.70
17452;DHT22;8843;48.838;9.324;2024-01-15T15:59:30;3.30;87.10
17452;DHT22;8843;48.838;9.324;2024-01-15T16:01:58;3.10;88.20
17452;DHT22;8843;48.838;9.324;2024-01-15T16:04:25;3.10;87.30